sensor_id;sensor_type;location;lat;lon;timestamp;pressure;altitude;pressure_sealevel;temperature;humidity
55990;BME280;41875;55.806;38.082;2023-05-03T00:01:55;99621.88;;;7.17;49.91
55990;BME280;41875;55.806;38.082;2023-05-03T00:04:23;99623.19;;;7.72;48.90
55990;BME280;41875;55.806;38.082;2023-05-03T00:06:53;99617.75;;;7.34;49.34
55990;BME280;41875;55.806;38.082;2023-05-03T00:09:22;99616.63;;;7.37;49.52
55990;BME280;41875;55.806;38.082;2023-05-03T00:11:50;99620.56;;;7.11;50.17
55990;BME280;41875;55.806;38.082;2023-05-03T00:14:19;99621.50;;;7.31;49.36
55990;BME280;41875;55.806;38.082;2023-05-03T00:16:47;99612.81;;;7.10;49.63
55990;BME280;41875;55.806;38.082;2023-05-03T00:19:16;99621.78;;;6.97;50.16
55990;BME280;41875;55.806;38.082;2023-05-03T00:21:59;99614.44;;;7.42;49.12
55990;BME280;41875;55.806;38.082;2023-05-03T00:24:27;99613.28;;;7.25;49.74
55990;BME280;41875;55.806;38.082;2023-05-03T00:26:56;99609.53;;;7.27;49.64
55990;BME280;41875;55.806;38.082;2023-05-03T00:29:24;99604.97;;;7.29;49.63
55990;BME280;41875;55.806;38.082;2023-05-03T00:31:52;99610.16;;;7.00;50.22
55990;BME280;41875;55.806;38.082;2023-05-03T00:34:21;99608.41;;;7.10;50.05
55990;BME280;41875;55.806;38.082;2023-05-03T00:36:49;99606.16;;;7.06;50.04
55990;BME280;41875;55.806;38.082;2023-05-03T00:39:19;99596.56;;;6.95;50.32
55990;BME280;41875;55.806;38.082;2023-05-03T00:41:48;99595.53;;;6.76;51.03
55990;BME280;41875;55.806;38.082;2023-05-03T00:44:16;99584.69;;;7.20;49.62
55990;BME280;41875;55.806;38.082;2023-05-03T00:46:45;99589.72;;;7.33;49.21
55990;BME280;41875;55.806;38.082;2023-05-03T00:49:13;99585.25;;;7.33;49.36
55990;BME280;41875;55.806;38.082;2023-05-03T00:51:41;99581.69;;;7.54;48.80
55990;BME280;41875;55.806;38.082;2023-05-03T00:54:10;99588.78;;;7.63;48.39
55990;BME280;41875;55.806;38.082;2023-05-03T00:56:40;99579.31;;;7.51;48.86
55990;BME280;41875;55.806;38.082;2023-05-03T00:59:17;99581.16;;;7.60;48.48
55990;BME280;41875;55.806;38.082;2023-05-03T01:01:47;99578.09;;;7.65;49.05
55990;BME280;41875;55.806;38.082;2023-05-03T01:04:16;99571.84;;;7.86;48.09
55990;BME280;41875;55.806;38.082;2023-05-03T01:07:07;99576.44;;;7.84;48.51
55990;BME280;41875;55.806;38.082;2023-05-03T01:09:42;99571.56;;;7.40;49.34
55990;BME280;41875;55.806;38.082;2023-05-03T01:12:19;99573.53;;;7.67;48.52
55990;BME280;41875;55.806;38.082;2023-05-03T01:14:58;99564.19;;;7.33;50.17
55990;BME280;41875;55.806;38.082;2023-05-03T01:17:50;99569.75;;;7.60;49.06
55990;BME280;41875;55.806;38.082;2023-05-03T01:20:22;99569.19;;;7.37;49.40
55990;BME280;41875;55.806;38.082;2023-05-03T01:23:00;99566.28;;;7.40;49.57
55990;BME280;41875;55.806;38.082;2023-05-03T01:25:34;99553.09;;;7.40;49.93
55990;BME280;41875;55.806;38.082;2023-05-03T01:28:02;99543.97;;;7.54;49.42
55990;BME280;41875;55.806;38.082;2023-05-03T01:30:31;99536.06;;;7.44;49.81
55990;BME280;41875;55.806;38.082;2023-05-03T01:33:06;99544.78;;;7.74;48.68
55990;BME280;41875;55.806;38.082;2023-05-03T01:35:40;99542.44;;;7.61;49.27
55990;BME280;41875;55.806;38.082;2023-05-03T01:38:09;99531.34;;;7.77;49.00
55990;BME280;41875;55.806;38.082;2023-05-03T01:40:43;99529.66;;;7.76;48.91
55990;BME280;41875;55.806;38.082;2023-05-03T01:43:15;99517.53;;;8.03;48.06
55990;BME280;41875;55.806;38.082;2023-05-03T01:45:45;99535.31;;;7.91;48.20
55990;BME280;41875;55.806;38.082;2023-05-03T01:48:16;99541.31;;;7.34;50.10
55990;BME280;41875;55.806;38.082;2023-05-03T01:50:44;99538.66;;;7.93;49.31
55990;BME280;41875;55.806;38.082;2023-05-03T01:53:13;99546.63;;;8.78;46.86
55990;BME280;41875;55.806;38.082;2023-05-03T01:55:43;99537.72;;;8.79;46.69
55990;BME280;41875;55.806;38.082;2023-05-03T01:58:11;99517.38;;;8.62;46.65
55990;BME280;41875;55.806;38.082;2023-05-03T02:00:40;99532.72;;;8.76;46.70
55990;BME280;41875;55.806;38.082;2023-05-03T02:03:08;99531.03;;;9.03;46.43
55990;BME280;41875;55.806;38.082;2023-05-03T02:05:37;99529.91;;;8.78;46.97
55990;BME280;41875;55.806;38.082;2023-05-03T02:08:05;99522.84;;;7.93;48.64
55990;BME280;41875;55.806;38.082;2023-05-03T02:10:34;99524.66;;;7.92;49.42
55990;BME280;41875;55.806;38.082;2023-05-03T02:13:04;99518.06;;;8.16;48.84
55990;BME280;41875;55.806;38.082;2023-05-03T02:15:32;99512.53;;;8.57;47.44
55990;BME280;41875;55.806;38.082;2023-05-03T02:18:01;99516.59;;;8.51;47.88
55990;BME280;41875;55.806;38.082;2023-05-03T02:20:29;99513.91;;;8.61;47.57
55990;BME280;41875;55.806;38.082;2023-05-03T02:23:02;99521.44;;;9.02;46.17
55990;BME280;41875;55.806;38.082;2023-05-03T02:25:31;99507.25;;;8.57;47.64
55990;BME280;41875;55.806;38.082;2023-05-03T02:27:59;99504.44;;;8.59;48.08
55990;BME280;41875;55.806;38.082;2023-05-03T02:30:29;99508.41;;;9.00;46.75
55990;BME280;41875;55.806;38.082;2023-05-03T02:32:58;99495.69;;;8.20;48.71
55990;BME280;41875;55.806;38.082;2023-05-03T02:35:27;99494.59;;;8.79;47.12
55990;BME280;41875;55.806;38.082;2023-05-03T02:37:56;99501.56;;;9.26;46.20
55990;BME280;41875;55.806;38.082;2023-05-03T02:40:25;99496.16;;;9.54;45.19
55990;BME280;41875;55.806;38.082;2023-05-03T02:42:55;99491.75;;;10.07;44.07
55990;BME280;41875;55.806;38.082;2023-05-03T02:45:28;99492.56;;;10.34;43.47
55990;BME280;41875;55.806;38.082;2023-05-03T02:47:57;99503.91;;;10.18;44.12
55990;BME280;41875;55.806;38.082;2023-05-03T02:50:26;99491.56;;;13.15;38.06
55990;BME280;41875;55.806;38.082;2023-05-03T02:52:55;99496.59;;;12.38;39.26
55990;BME280;41875;55.806;38.082;2023-05-03T02:55:23;99501.84;;;11.98;40.38
55990;BME280;41875;55.806;38.082;2023-05-03T02:57:52;99488.31;;;12.73;38.54
55990;BME280;41875;55.806;38.082;2023-05-03T03:00:20;99493.31;;;12.28;39.61
55990;BME280;41875;55.806;38.082;2023-05-03T03:02:50;99491.50;;;12.68;38.93
55990;BME280;41875;55.806;38.082;2023-05-03T03:05:20;99493.34;;;12.68;38.95
55990;BME280;41875;55.806;38.082;2023-05-03T03:07:50;99491.03;;;12.16;39.36
55990;BME280;41875;55.806;38.082;2023-05-03T03:10:19;99494.06;;;11.55;40.96
55990;BME280;41875;55.806;38.082;2023-05-03T03:12:48;99499.88;;;10.83;42.58
55990;BME280;41875;55.806;38.082;2023-05-03T03:15:29;99489.88;;;11.11;41.78
55990;BME280;41875;55.806;38.082;2023-05-03T03:17:59;99486.56;;;11.26;41.62
55990;BME280;41875;55.806;38.082;2023-05-03T03:20:27;99476.41;;;10.45;43.34
55990;BME280;41875;55.806;38.082;2023-05-03T03:22:56;99485.28;;;10.36;43.60
55990;BME280;41875;55.806;38.082;2023-05-03T03:25:25;99486.34;;;10.43;43.75
55990;BME280;41875;55.806;38.082;2023-05-03T03:27:56;99494.50;;;10.50;43.70
55990;BME280;41875;55.806;38.082;2023-05-03T03:30:25;99491.94;;;10.83;43.51
55990;BME280;41875;55.806;38.082;2023-05-03T03:33:10;99486.75;;;10.57;43.58
55990;BME280;41875;55.806;38.082;2023-05-03T03:35:40;99489.75;;;10.70;43.95
55990;BME280;41875;55.806;38.082;2023-05-03T03:38:10;99501.75;;;10.21;44.96
55990;BME280;41875;55.806;38.082;2023-05-03T03:40:47;99489.84;;;10.52;44.42
55990;BME280;41875;55.806;38.082;2023-05-03T03:43:16;99494.50;;;10.58;43.89
55990;BME280;41875;55.806;38.082;2023-05-03T03:45:45;99494.44;;;10.93;43.23
55990;BME280;41875;55.806;38.082;2023-05-03T03:48:17;99500.38;;;10.70;43.34
55990;BME280;41875;55.806;38.082;2023-05-03T03:50:47;99494.34;;;11.11;42.85
55990;BME280;41875;55.806;38.082;2023-05-03T03:53:17;99495.25;;;10.77;43.31
55990;BME280;41875;55.806;38.082;2023-05-03T03:55:45;99498.91;;;10.41;44.24
55990;BME280;41875;55.806;38.082;2023-05-03T03:58:16;99496.34;;;11.09;43.27
55990;BME280;41875;55.806;38.082;2023-05-03T04:00:45;99497.06;;;10.76;43.81
55990;BME280;41875;55.806;38.082;2023-05-03T04:03:19;99502.16;;;10.61;44.02
55990;BME280;41875;55.806;38.082;2023-05-03T04:05:49;99503.31;;;10.32;45.20
55990;BME280;41875;55.806;38.082;2023-05-03T04:08:20;99503.00;;;10.70;44.51
55990;BME280;41875;55.806;38.082;2023-05-03T04:10:49;99508.81;;;10.74;44.20
55990;BME280;41875;55.806;38.082;2023-05-03T04:13:18;99509.44;;;11.19;43.52
55990;BME280;41875;55.806;38.082;2023-05-03T04:15:53;99514.22;;;11.07;43.77
55990;BME280;41875;55.806;38.082;2023-05-03T04:18:24;99508.44;;;11.36;42.95
55990;BME280;41875;55.806;38.082;2023-05-03T04:20:56;99523.09;;;10.89;43.91
55990;BME280;41875;55.806;38.082;2023-05-03T04:23:25;99510.31;;;11.52;43.15
55990;BME280;41875;55.806;38.082;2023-05-03T04:25:54;99516.41;;;11.53;43.09
55990;BME280;41875;55.806;38.082;2023-05-03T04:28:24;99512.78;;;11.46;43.33
55990;BME280;41875;55.806;38.082;2023-05-03T04:30:53;99513.41;;;11.15;43.73
55990;BME280;41875;55.806;38.082;2023-05-03T04:33:26;99496.03;;;11.70;43.12
55990;BME280;41875;55.806;38.082;2023-05-03T04:36:00;99513.72;;;11.20;44.12
55990;BME280;41875;55.806;38.082;2023-05-03T04:38:31;99529.47;;;10.62;46.74
55990;BME280;41875;55.806;38.082;2023-05-03T04:41:02;99535.97;;;10.76;47.35
55990;BME280;41875;55.806;38.082;2023-05-03T04:43:30;99529.34;;;10.72;48.45
55990;BME280;41875;55.806;38.082;2023-05-03T04:46:00;99524.94;;;10.54;48.98
55990;BME280;41875;55.806;38.082;2023-05-03T04:48:31;99525.94;;;10.53;49.24
55990;BME280;41875;55.806;38.082;2023-05-03T04:51:02;99511.03;;;10.87;50.62
55990;BME280;41875;55.806;38.082;2023-05-03T04:53:30;99517.41;;;11.19;49.79
55990;BME280;41875;55.806;38.082;2023-05-03T04:56:07;99513.41;;;10.63;53.13
55990;BME280;41875;55.806;38.082;2023-05-03T04:58:38;99524.72;;;10.74;52.93
55990;BME280;41875;55.806;38.082;2023-05-03T05:01:07;99519.72;;;10.62;53.37
55990;BME280;41875;55.806;38.082;2023-05-03T05:03:38;99537.78;;;10.75;54.44
55990;BME280;41875;55.806;38.082;2023-05-03T05:06:12;99525.94;;;10.88;54.34
55990;BME280;41875;55.806;38.082;2023-05-03T05:08:41;99538.66;;;10.84;54.56
55990;BME280;41875;55.806;38.082;2023-05-03T05:11:13;99543.44;;;10.72;54.47
55990;BME280;41875;55.806;38.082;2023-05-03T05:13:41;99538.66;;;10.84;54.70
55990;BME280;41875;55.806;38.082;2023-05-03T05:16:11;99539.44;;;11.19;54.53
55990;BME280;41875;55.806;38.082;2023-05-03T05:18:45;99533.47;;;11.25;55.88
55990;BME280;41875;55.806;38.082;2023-05-03T05:21:15;99524.81;;;11.15;55.77
55990;BME280;41875;55.806;38.082;2023-05-03T05:23:44;99524.47;;;10.93;57.96
55990;BME280;41875;55.806;38.082;2023-05-03T05:26:13;99523.97;;;11.06;56.04
55990;BME280;41875;55.806;38.082;2023-05-03T05:28:41;99520.53;;;11.31;55.34
55990;BME280;41875;55.806;38.082;2023-05-03T05:31:10;99528.19;;;11.25;55.25
55990;BME280;41875;55.806;38.082;2023-05-03T05:33:39;99528.66;;;11.37;54.94
55990;BME280;41875;55.806;38.082;2023-05-03T05:36:10;99532.00;;;11.31;55.08
55990;BME280;41875;55.806;38.082;2023-05-03T05:38:39;99532.69;;;11.99;53.11
55990;BME280;41875;55.806;38.082;2023-05-03T05:41:08;99536.66;;;11.54;53.37
55990;BME280;41875;55.806;38.082;2023-05-03T05:43:39;99539.72;;;12.48;50.64
55990;BME280;41875;55.806;38.082;2023-05-03T05:46:08;99534.69;;;12.70;49.11
55990;BME280;41875;55.806;38.082;2023-05-03T05:48:38;99542.59;;;12.87;47.24
55990;BME280;41875;55.806;38.082;2023-05-03T05:51:12;99551.22;;;12.89;47.97
55990;BME280;41875;55.806;38.082;2023-05-03T05:53:40;99538.47;;;12.76;48.64
55990;BME280;41875;55.806;38.082;2023-05-03T05:56:09;99548.56;;;12.80;47.94
55990;BME280;41875;55.806;38.082;2023-05-03T05:58:38;99544.94;;;12.25;48.78
55990;BME280;41875;55.806;38.082;2023-05-03T06:01:07;99542.56;;;12.47;48.49
55990;BME280;41875;55.806;38.082;2023-05-03T06:03:36;99554.16;;;13.02;46.59
55990;BME280;41875;55.806;38.082;2023-05-03T06:06:07;99548.75;;;13.10;46.53
55990;BME280;41875;55.806;38.082;2023-05-03T06:08:37;99546.50;;;12.99;46.72
55990;BME280;41875;55.806;38.082;2023-05-03T06:11:05;99548.94;;;13.64;45.52
55990;BME280;41875;55.806;38.082;2023-05-03T06:13:34;99547.06;;;14.26;44.13
55990;BME280;41875;55.806;38.082;2023-05-03T06:16:06;99545.47;;;14.01;43.50
55990;BME280;41875;55.806;38.082;2023-05-03T06:18:35;99546.72;;;14.59;43.19
55990;BME280;41875;55.806;38.082;2023-05-03T06:21:06;99548.94;;;14.55;43.07
55990;BME280;41875;55.806;38.082;2023-05-03T06:23:37;99549.09;;;15.35;41.71
55990;BME280;41875;55.806;38.082;2023-05-03T06:26:07;99554.06;;;15.38;41.88
55990;BME280;41875;55.806;38.082;2023-05-03T06:28:37;99546.16;;;15.08;42.20
55990;BME280;41875;55.806;38.082;2023-05-03T06:31:05;99546.81;;;15.32;41.48
55990;BME280;41875;55.806;38.082;2023-05-03T06:33:34;99548.00;;;15.51;41.34
55990;BME280;41875;55.806;38.082;2023-05-03T06:36:05;99545.06;;;15.39;39.91
55990;BME280;41875;55.806;38.082;2023-05-03T06:38:37;99553.16;;;15.75;39.95
55990;BME280;41875;55.806;38.082;2023-05-03T06:41:06;99550.09;;;16.56;38.64
55990;BME280;41875;55.806;38.082;2023-05-03T06:43:34;99559.91;;;16.49;38.73
55990;BME280;41875;55.806;38.082;2023-05-03T06:46:06;99569.00;;;14.96;41.44
55990;BME280;41875;55.806;38.082;2023-05-03T06:48:35;99576.16;;;14.66;41.15
55990;BME280;41875;55.806;38.082;2023-05-03T06:51:03;99565.25;;;15.49;40.88
55990;BME280;41875;55.806;38.082;2023-05-03T06:53:32;99570.00;;;15.53;39.34
55990;BME280;41875;55.806;38.082;2023-05-03T06:56:02;99576.66;;;15.21;40.54
55990;BME280;41875;55.806;38.082;2023-05-03T06:58:31;99563.63;;;15.69;39.49
55990;BME280;41875;55.806;38.082;2023-05-03T07:01:00;99555.34;;;15.64;39.21
55990;BME280;41875;55.806;38.082;2023-05-03T07:03:29;99551.13;;;16.62;37.95
55990;BME280;41875;55.806;38.082;2023-05-03T07:05:58;99562.25;;;16.66;37.81
55990;BME280;41875;55.806;38.082;2023-05-03T07:08:27;99548.66;;;16.25;38.21
55990;BME280;41875;55.806;38.082;2023-05-03T07:10:55;99554.69;;;16.06;38.49
55990;BME280;41875;55.806;38.082;2023-05-03T07:13:25;99555.56;;;17.39;36.49
55990;BME280;41875;55.806;38.082;2023-05-03T07:15:53;99550.53;;;17.02;36.17
55990;BME280;41875;55.806;38.082;2023-05-03T07:18:22;99557.66;;;17.57;35.84
55990;BME280;41875;55.806;38.082;2023-05-03T07:20:51;99559.53;;;17.76;35.39
55990;BME280;41875;55.806;38.082;2023-05-03T07:23:19;99556.44;;;17.66;35.98
55990;BME280;41875;55.806;38.082;2023-05-03T07:25:48;99556.44;;;17.59;34.38
55990;BME280;41875;55.806;38.082;2023-05-03T07:28:16;99565.38;;;16.34;37.66
55990;BME280;41875;55.806;38.082;2023-05-03T07:30:46;99562.03;;;16.96;36.43
55990;BME280;41875;55.806;38.082;2023-05-03T07:33:14;99559.75;;;17.61;35.46
55990;BME280;41875;55.806;38.082;2023-05-03T07:35:45;99567.50;;;17.23;36.64
55990;BME280;41875;55.806;38.082;2023-05-03T07:38:13;99567.66;;;16.72;37.19
55990;BME280;41875;55.806;38.082;2023-05-03T07:40:42;99569.88;;;17.04;36.36
55990;BME280;41875;55.806;38.082;2023-05-03T07:43:10;99575.84;;;16.64;37.21
55990;BME280;41875;55.806;38.082;2023-05-03T07:45:39;99567.88;;;17.13;36.66
55990;BME280;41875;55.806;38.082;2023-05-03T07:48:08;99572.81;;;17.16;36.88
55990;BME280;41875;55.806;38.082;2023-05-03T07:50:40;99577.19;;;17.24;37.18
55990;BME280;41875;55.806;38.082;2023-05-03T07:53:10;99577.56;;;17.20;36.37
55990;BME280;41875;55.806;38.082;2023-05-03T07:55:38;99578.66;;;17.40;36.57
55990;BME280;41875;55.806;38.082;2023-05-03T07:58:07;99571.69;;;17.65;36.45
55990;BME280;41875;55.806;38.082;2023-05-03T08:00:41;99578.22;;;17.36;36.17
55990;BME280;41875;55.806;38.082;2023-05-03T08:03:14;99587.97;;;17.64;35.63
55990;BME280;41875;55.806;38.082;2023-05-03T08:05:43;99586.16;;;17.91;35.78
55990;BME280;41875;55.806;38.082;2023-05-03T08:08:12;99591.28;;;17.79;36.37
55990;BME280;41875;55.806;38.082;2023-05-03T08:10:41;99600.88;;;17.33;36.30
55990;BME280;41875;55.806;38.082;2023-05-03T08:13:09;99605.50;;;17.80;36.40
55990;BME280;41875;55.806;38.082;2023-05-03T08:15:38;99609.91;;;17.26;37.54
55990;BME280;41875;55.806;38.082;2023-05-03T08:18:07;99607.38;;;18.40;35.50
55990;BME280;41875;55.806;38.082;2023-05-03T08:20:37;99609.19;;;17.72;36.47
55990;BME280;41875;55.806;38.082;2023-05-03T08:23:09;99613.19;;;18.23;35.43
55990;BME280;41875;55.806;38.082;2023-05-03T08:25:37;99601.41;;;18.51;35.47
55990;BME280;41875;55.806;38.082;2023-05-03T08:28:06;99607.78;;;18.57;35.61
55990;BME280;41875;55.806;38.082;2023-05-03T08:30:35;99602.00;;;17.86;36.81
55990;BME280;41875;55.806;38.082;2023-05-03T08:33:03;99601.75;;;17.61;37.03
55990;BME280;41875;55.806;38.082;2023-05-03T08:35:32;99612.38;;;18.16;36.27
55990;BME280;41875;55.806;38.082;2023-05-03T08:38:02;99616.22;;;17.73;36.49
55990;BME280;41875;55.806;38.082;2023-05-03T08:40:31;99616.66;;;17.83;36.65
55990;BME280;41875;55.806;38.082;2023-05-03T08:43:06;99629.81;;;17.10;38.14
55990;BME280;41875;55.806;38.082;2023-05-03T08:45:35;99628.06;;;17.30;37.63
55990;BME280;41875;55.806;38.082;2023-05-03T08:48:05;99640.25;;;17.46;36.57
55990;BME280;41875;55.806;38.082;2023-05-03T08:50:34;99640.63;;;16.59;38.04
55990;BME280;41875;55.806;38.082;2023-05-03T08:53:10;99638.53;;;16.55;38.22
55990;BME280;41875;55.806;38.082;2023-05-03T08:55:39;99653.59;;;16.34;39.00
55990;BME280;41875;55.806;38.082;2023-05-03T08:58:07;99643.22;;;16.24;39.98
55990;BME280;41875;55.806;38.082;2023-05-03T09:00:39;99649.94;;;15.77;41.18
55990;BME280;41875;55.806;38.082;2023-05-03T09:03:11;99646.72;;;15.81;42.52
55990;BME280;41875;55.806;38.082;2023-05-03T09:05:40;99640.28;;;15.91;41.02
55990;BME280;41875;55.806;38.082;2023-05-03T09:08:11;99641.09;;;16.13;40.75
55990;BME280;41875;55.806;38.082;2023-05-03T09:10:42;99636.97;;;15.89;41.73
55990;BME280;41875;55.806;38.082;2023-05-03T09:13:10;99637.06;;;15.44;42.88
55990;BME280;41875;55.806;38.082;2023-05-03T09:15:39;99640.56;;;15.81;42.28
55990;BME280;41875;55.806;38.082;2023-05-03T09:18:12;99632.16;;;15.84;42.27
55990;BME280;41875;55.806;38.082;2023-05-03T09:20:42;99633.66;;;16.65;40.28
55990;BME280;41875;55.806;38.082;2023-05-03T09:23:29;99635.94;;;16.68;40.42
55990;BME280;41875;55.806;38.082;2023-05-03T09:25:58;99649.00;;;15.11;45.16
55990;BME280;41875;55.806;38.082;2023-05-03T09:28:27;99658.66;;;14.82;44.90
55990;BME280;41875;55.806;38.082;2023-05-03T09:31:05;99657.16;;;15.39;44.46
55990;BME280;41875;55.806;38.082;2023-05-03T09:33:38;99652.19;;;15.21;44.64
55990;BME280;41875;55.806;38.082;2023-05-03T09:36:07;99646.84;;;15.21;44.91
55990;BME280;41875;55.806;38.082;2023-05-03T09:38:40;99664.63;;;14.69;47.66
55990;BME280;41875;55.806;38.082;2023-05-03T09:41:11;99673.44;;;14.08;48.59
55990;BME280;41875;55.806;38.082;2023-05-03T09:43:47;99678.28;;;13.81;50.20
55990;BME280;41875;55.806;38.082;2023-05-03T09:46:17;99684.09;;;14.08;50.63
55990;BME280;41875;55.806;38.082;2023-05-03T09:48:46;99674.09;;;13.87;51.38
55990;BME280;41875;55.806;38.082;2023-05-03T09:51:16;99665.53;;;13.37;52.63
55990;BME280;41875;55.806;38.082;2023-05-03T09:53:46;99664.97;;;13.81;52.76
55990;BME280;41875;55.806;38.082;2023-05-03T09:56:15;99668.19;;;14.00;52.16
55990;BME280;41875;55.806;38.082;2023-05-03T09:58:46;99664.31;;;14.02;53.29
55990;BME280;41875;55.806;38.082;2023-05-03T10:01:15;99676.94;;;13.54;53.76
55990;BME280;41875;55.806;38.082;2023-05-03T10:03:46;99681.56;;;14.53;51.18
55990;BME280;41875;55.806;38.082;2023-05-03T10:06:23;99680.31;;;14.64;51.45
55990;BME280;41875;55.806;38.082;2023-05-03T10:08:59;99682.97;;;14.64;51.25
55990;BME280;41875;55.806;38.082;2023-05-03T10:11:35;99680.81;;;14.98;49.46
55990;BME280;41875;55.806;38.082;2023-05-03T10:14:04;99681.38;;;14.93;49.63
55990;BME280;41875;55.806;38.082;2023-05-03T10:16:36;99679.06;;;15.87;47.32
55990;BME280;41875;55.806;38.082;2023-05-03T10:19:10;99673.97;;;15.40;48.39
55990;BME280;41875;55.806;38.082;2023-05-03T10:21:53;99682.94;;;14.87;50.40
55990;BME280;41875;55.806;38.082;2023-05-03T10:24:24;99676.59;;;15.85;47.92
55990;BME280;41875;55.806;38.082;2023-05-03T10:26:54;99677.25;;;17.23;44.47
55990;BME280;41875;55.806;38.082;2023-05-03T10:29:45;99679.84;;;16.81;45.42
55990;BME280;41875;55.806;38.082;2023-05-03T10:32:29;99677.75;;;17.04;44.77
55990;BME280;41875;55.806;38.082;2023-05-03T10:35:17;99661.03;;;16.39;45.93
55990;BME280;41875;55.806;38.082;2023-05-03T10:37:49;99669.16;;;16.52;46.03
55990;BME280;41875;55.806;38.082;2023-05-03T10:40:22;99662.75;;;17.10;44.17
55990;BME280;41875;55.806;38.082;2023-05-03T10:42:53;99672.78;;;18.05;42.35
55990;BME280;41875;55.806;38.082;2023-05-03T10:45:24;99674.44;;;18.06;41.78
55990;BME280;41875;55.806;38.082;2023-05-03T10:48:16;99669.47;;;18.10;41.74
55990;BME280;41875;55.806;38.082;2023-05-03T10:50:46;99665.34;;;17.32;43.01
55990;BME280;41875;55.806;38.082;2023-05-03T10:53:37;99670.50;;;18.09;41.60
55990;BME280;41875;55.806;38.082;2023-05-03T10:56:08;99679.75;;;16.96;44.42
55990;BME280;41875;55.806;38.082;2023-05-03T10:58:41;99679.88;;;17.64;42.54
55990;BME280;41875;55.806;38.082;2023-05-03T11:01:11;99683.59;;;17.15;44.02
55990;BME280;41875;55.806;38.082;2023-05-03T11:03:48;99683.03;;;17.26;43.49
55990;BME280;41875;55.806;38.082;2023-05-03T11:06:31;99682.47;;;18.40;41.42
55990;BME280;41875;55.806;38.082;2023-05-03T11:09:02;99682.81;;;17.90;41.80
55990;BME280;41875;55.806;38.082;2023-05-03T11:11:34;99687.88;;;17.09;42.76
55990;BME280;41875;55.806;38.082;2023-05-03T11:14:03;99682.78;;;16.86;43.28
55990;BME280;41875;55.806;38.082;2023-05-03T11:16:32;99669.91;;;16.96;43.26
55990;BME280;41875;55.806;38.082;2023-05-03T11:19:02;99679.50;;;16.62;44.31
55990;BME280;41875;55.806;38.082;2023-05-03T11:21:33;99667.03;;;16.69;44.63
55990;BME280;41875;55.806;38.082;2023-05-03T11:24:03;99661.50;;;16.77;44.69
55990;BME280;41875;55.806;38.082;2023-05-03T11:26:36;99673.47;;;16.82;44.63
55990;BME280;41875;55.806;38.082;2023-05-03T11:29:04;99668.97;;;17.73;42.29
55990;BME280;41875;55.806;38.082;2023-05-03T11:31:33;99667.63;;;17.42;43.51
55990;BME280;41875;55.806;38.082;2023-05-03T11:34:03;99661.19;;;17.85;41.85
55990;BME280;41875;55.806;38.082;2023-05-03T11:36:33;99669.16;;;16.81;43.92
55990;BME280;41875;55.806;38.082;2023-05-03T11:39:01;99671.75;;;17.44;42.63
55990;BME280;41875;55.806;38.082;2023-05-03T11:41:32;99663.34;;;17.54;42.15
55990;BME280;41875;55.806;38.082;2023-05-03T11:44:01;99659.53;;;17.21;42.90
55990;BME280;41875;55.806;38.082;2023-05-03T11:46:43;99661.06;;;17.51;42.42
55990;BME280;41875;55.806;38.082;2023-05-03T11:49:16;99658.06;;;17.81;41.09
55990;BME280;41875;55.806;38.082;2023-05-03T11:51:46;99657.34;;;17.45;41.86
55990;BME280;41875;55.806;38.082;2023-05-03T11:54:21;99656.66;;;17.92;41.13
55990;BME280;41875;55.806;38.082;2023-05-03T11:56:54;99653.66;;;17.53;41.86
55990;BME280;41875;55.806;38.082;2023-05-03T11:59:36;99656.22;;;17.75;41.81
55990;BME280;41875;55.806;38.082;2023-05-03T12:02:06;99660.63;;;18.09;40.22
55990;BME280;41875;55.806;38.082;2023-05-03T12:04:36;99651.34;;;18.12;40.09
55990;BME280;41875;55.806;38.082;2023-05-03T12:07:08;99657.31;;;18.54;39.47
55990;BME280;41875;55.806;38.082;2023-05-03T12:09:43;99649.28;;;18.01;39.74
55990;BME280;41875;55.806;38.082;2023-05-03T12:12:33;99652.06;;;17.72;40.06
55990;BME280;41875;55.806;38.082;2023-05-03T12:15:10;99657.72;;;18.04;39.04
55990;BME280;41875;55.806;38.082;2023-05-03T12:17:41;99666.59;;;18.11;38.94
55990;BME280;41875;55.806;38.082;2023-05-03T12:20:17;99662.16;;;17.70;39.50
55990;BME280;41875;55.806;38.082;2023-05-03T12:22:51;99667.91;;;17.60;40.14
55990;BME280;41875;55.806;38.082;2023-05-03T12:25:25;99668.09;;;17.59;39.90
55990;BME280;41875;55.806;38.082;2023-05-03T12:27:59;99658.09;;;17.94;38.95
55990;BME280;41875;55.806;38.082;2023-05-03T12:30:48;99661.69;;;17.46;40.19
55990;BME280;41875;55.806;38.082;2023-05-03T12:33:19;99666.19;;;18.55;38.16
55990;BME280;41875;55.806;38.082;2023-05-03T12:35:49;99674.97;;;19.23;37.28
55990;BME280;41875;55.806;38.082;2023-05-03T12:38:20;99674.44;;;18.67;37.61
55990;BME280;41875;55.806;38.082;2023-05-03T12:40:51;99668.88;;;18.35;38.46
55990;BME280;41875;55.806;38.082;2023-05-03T12:43:21;99667.75;;;17.75;39.25
55990;BME280;41875;55.806;38.082;2023-05-03T12:45:53;99658.16;;;18.35;38.49
55990;BME280;41875;55.806;38.082;2023-05-03T12:48:30;99675.47;;;18.66;37.89
55990;BME280;41875;55.806;38.082;2023-05-03T12:50:59;99667.41;;;18.79;37.55
55990;BME280;41875;55.806;38.082;2023-05-03T12:53:46;99663.69;;;18.80;37.39
55990;BME280;41875;55.806;38.082;2023-05-03T12:56:21;99662.25;;;18.64;37.79
55990;BME280;41875;55.806;38.082;2023-05-03T12:58:52;99660.63;;;18.50;37.64
55990;BME280;41875;55.806;38.082;2023-05-03T13:01:42;99661.19;;;18.99;37.23
55990;BME280;41875;55.806;38.082;2023-05-03T13:04:13;99664.09;;;18.77;37.83
55990;BME280;41875;55.806;38.082;2023-05-03T13:07:02;99649.69;;;19.37;36.36
55990;BME280;41875;55.806;38.082;2023-05-03T13:09:39;99659.13;;;18.81;36.38
55990;BME280;41875;55.806;38.082;2023-05-03T13:12:28;99660.56;;;18.83;36.61
55990;BME280;41875;55.806;38.082;2023-05-03T13:15:00;99660.78;;;18.75;37.20